sensor_id;sensor_type;location;lat;lon;timestamp;temperature;humidity
3876;DHT22;1953;51.222;6.624;2024-03-08T00:02:16;6.50;1.00
3876;DHT22;1953;51.222;6.624;2024-03-08T00:06:58;6.60;1.00
3876;DHT22;1953;51.222;6.624;2024-03-08T00:11:42;6.50;1.00
3876;DHT22;1953;51.222;6.624;2024-03-08T00:16:25;6.40;1.00
3876;DHT22;1953;51.222;6.624;2024-03-08T00:21:45;6.30;1.00
3876;DHT22;1953;51.222;6.624;2024-03-08T00:26:27;6.20;1.00
3876;DHT22;1953;51.222;6.624;2024-03-08T00:31:11;6.10;1.00
3876;DHT22;1953;51.222;6.624;2024-03-08T00:35:53;6.10;1.00
3876;DHT22;1953;51.222;6.624;2024-03-08T00:40:37;6.10;1.00
3876;DHT22;1953;51.222;6.624;2024-03-08T00:45:21;6.10;1.00
3876;DHT22;1953;51.222;6.624;2024-03-08T00:50:05;6.00;1.00
3876;DHT22;1953;51.222;6.624;2024-03-08T00:54:49;5.90;1.00
3876;DHT22;1953;51.222;6.624;2024-03-08T00:59:33;5.90;1.00
3876;DHT22;1953;51.222;6.624;2024-03-08T01:04:16;7.00;1.00
3876;DHT22;1953;51.222;6.624;2024-03-08T01:08:58;5.90;1.00
3876;DHT22;1953;51.222;6.624;2024-03-08T01:13:40;5.90;1.00
3876;DHT22;1953;51.222;6.624;2024-03-08T01:18:24;5.90;1.00
3876;DHT22;1953;51.222;6.624;2024-03-08T01:23:07;5.80;1.00
3876;DHT22;1953;51.222;6.624;2024-03-08T01:27:49;5.80;1.00
3876;DHT22;1953;51.222;6.624;2024-03-08T01:32:32;5.80;1.00
3876;DHT22;1953;51.222;6.624;2024-03-08T01:37:16;5.80;1.00
3876;DHT22;1953;51.222;6.624;2024-03-08T01:41:58;5.70;1.00
3876;DHT22;1953;51.222;6.624;2024-03-08T01:46:41;5.70;1.00
3876;DHT22;1953;51.222;6.624;2024-03-08T01:51:25;5.70;1.00
3876;DHT22;1953;51.222;6.624;2024-03-08T01:56:11;5.70;1.00
3876;DHT22;1953;51.222;6.624;2024-03-08T02:00:35;5.70;1.00
3876;DHT22;1953;51.222;6.624;2024-03-08T02:05:19;5.60;1.00
3876;DHT22;1953;51.222;6.624;2024-03-08T02:10:02;5.50;1.00
3876;DHT22;1953;51.222;6.624;2024-03-08T02:14:46;5.50;1.00
3876;DHT22;1953;51.222;6.624;2024-03-08T02:19:28;5.50;1.00
3876;DHT22;1953;51.222;6.624;2024-03-08T02:24:12;5.50;1.00
3876;DHT22;1953;51.222;6.624;2024-03-08T02:28:55;5.50;1.00
3876;DHT22;1953;51.222;6.624;2024-03-08T02:33:38;5.40;1.00
3876;DHT22;1953;51.222;6.624;2024-03-08T02:38:22;5.50;1.00
3876;DHT22;1953;51.222;6.624;2024-03-08T02:43:06;5.40;1.00
3876;DHT22;1953;51.222;6.624;2024-03-08T02:47:50;5.40;1.00
3876;DHT22;1953;51.222;6.624;2024-03-08T02:52:35;5.30;1.00
3876;DHT22;1953;51.222;6.624;2024-03-08T02:57:28;5.30;1.00
3876;DHT22;1953;51.222;6.624;2024-03-08T03:02:12;5.30;1.00
3876;DHT22;1953;51.222;6.624;2024-03-08T03:12:32;5.30;1.00
3876;DHT22;1953;51.222;6.624;2024-03-08T03:17:17;5.20;1.00
3876;DHT22;1953;51.222;6.624;2024-03-08T03:22:01;5.20;1.00
3876;DHT22;1953;51.222;6.624;2024-03-08T03:26:44;5.10;1.00
3876;DHT22;1953;51.222;6.624;2024-03-08T03:31:27;5.10;1.00
3876;DHT22;1953;51.222;6.624;2024-03-08T03:36:11;5.10;1.00
3876;DHT22;1953;51.222;6.624;2024-03-08T03:40:55;5.00;1.00
3876;DHT22;1953;51.222;6.624;2024-03-08T03:45:45;5.00;1.00
3876;DHT22;1953;51.222;6.624;2024-03-08T03:50:28;4.90;1.00
3876;DHT22;1953;51.222;6.624;2024-03-08T03:55:12;4.90;1.00
3876;DHT22;1953;51.222;6.624;2024-03-08T03:59:54;4.90;1.00
3876;DHT22;1953;51.222;6.624;2024-03-08T04:04:38;4.90;1.00
3876;DHT22;1953;51.222;6.624;2024-03-08T04:09:20;4.90;1.00
3876;DHT22;1953;51.222;6.624;2024-03-08T04:14:05;4.80;1.00
3876;DHT22;1953;51.222;6.624;2024-03-08T04:18:47;4.70;1.00
3876;DHT22;1953;51.222;6.624;2024-03-08T04:23:30;4.60;1.00
3876;DHT22;1953;51.222;6.624;2024-03-08T04:28:12;4.60;1.00
3876;DHT22;1953;51.222;6.624;2024-03-08T04:32:56;4.50;1.00
3876;DHT22;1953;51.222;6.624;2024-03-08T04:37:39;4.50;1.00
3876;DHT22;1953;51.222;6.624;2024-03-08T04:42:22;4.40;1.00
3876;DHT22;1953;51.222;6.624;2024-03-08T04:47:05;4.40;1.00
3876;DHT22;1953;51.222;6.624;2024-03-08T04:51:49;4.30;1.00
3876;DHT22;1953;51.222;6.624;2024-03-08T04:56:32;4.30;1.00
3876;DHT22;1953;51.222;6.624;2024-03-08T05:01:15;4.30;1.00
3876;DHT22;1953;51.222;6.624;2024-03-08T05:05:57;4.20;1.00
3876;DHT22;1953;51.222;6.624;2024-03-08T05:10:41;4.10;1.00
3876;DHT22;1953;51.222;6.624;2024-03-08T05:15:24;4.00;1.00
3876;DHT22;1953;51.222;6.624;2024-03-08T05:20:07;4.00;1.00
3876;DHT22;1953;51.222;6.624;2024-03-08T05:24:53;3.90;1.00
3876;DHT22;1953;51.222;6.624;2024-03-08T05:29:38;3.90;1.00
3876;DHT22;1953;51.222;6.624;2024-03-08T05:34:21;3.80;1.00
3876;DHT22;1953;51.222;6.624;2024-03-08T05:39:03;3.80;1.00
3876;DHT22;1953;51.222;6.624;2024-03-08T05:43:47;3.70;1.00
3876;DHT22;1953;51.222;6.624;2024-03-08T05:48:31;3.70;1.00
3876;DHT22;1953;51.222;6.624;2024-03-08T05:53:14;3.60;1.00
3876;DHT22;1953;51.222;6.624;2024-03-08T05:57:57;3.50;1.00
3876;DHT22;1953;51.222;6.624;2024-03-08T06:02:39;3.50;1.00
3876;DHT22;1953;51.222;6.624;2024-03-08T06:07:24;3.40;1.00
3876;DHT22;1953;51.222;6.624;2024-03-08T06:12:07;3.50;1.00
3876;DHT22;1953;51.222;6.624;2024-03-08T06:16:52;3.40;1.00
3876;DHT22;1953;51.222;6.624;2024-03-08T06:21:35;3.40;1.00
3876;DHT22;1953;51.222;6.624;2024-03-08T06:26:19;3.30;1.00
3876;DHT22;1953;51.222;6.624;2024-03-08T06:31:02;3.30;1.00
3876;DHT22;1953;51.222;6.624;2024-03-08T06:35:45;3.30;1.00
3876;DHT22;1953;51.222;6.624;2024-03-08T06:40:28;3.40;1.00
3876;DHT22;1953;51.222;6.624;2024-03-08T06:45:12;3.50;1.00
3876;DHT22;1953;51.222;6.624;2024-03-08T06:49:56;3.50;1.00
3876;DHT22;1953;51.222;6.624;2024-03-08T06:54:39;3.60;1.00
3876;DHT22;1953;51.222;6.624;2024-03-08T06:59:23;3.60;1.00
3876;DHT22;1953;51.222;6.624;2024-03-08T07:04:07;3.70;1.00
3876;DHT22;1953;51.222;6.624;2024-03-08T07:14:10;3.90;1.00
3876;DHT22;1953;51.222;6.624;2024-03-08T07:18:53;4.10;1.00
3876;DHT22;1953;51.222;6.624;2024-03-08T07:23:36;4.20;1.00
3876;DHT22;1953;51.222;6.624;2024-03-08T07:28:54;4.40;1.00
3876;DHT22;1953;51.222;6.624;2024-03-08T07:33:37;4.70;1.00
3876;DHT22;1953;51.222;6.624;2024-03-08T07:38:20;4.90;1.00
3876;DHT22;1953;51.222;6.624;2024-03-08T07:43:04;5.00;1.00
3876;DHT22;1953;51.222;6.624;2024-03-08T07:47:47;5.30;1.00
3876;DHT22;1953;51.222;6.624;2024-03-08T07:52:30;5.40;1.00
3876;DHT22;1953;51.222;6.624;2024-03-08T07:57:12;5.60;1.00
3876;DHT22;1953;51.222;6.624;2024-03-08T08:01:56;5.70;1.00
3876;DHT22;1953;51.222;6.624;2024-03-08T08:06:39;5.90;1.00
3876;DHT22;1953;51.222;6.624;2024-03-08T08:11:22;6.10;1.00
3876;DHT22;1953;51.222;6.624;2024-03-08T08:16:05;6.20;1.00
3876;DHT22;1953;51.222;6.624;2024-03-08T08:20:49;6.40;1.00
3876;DHT22;1953;51.222;6.624;2024-03-08T08:25:33;6.60;1.00
3876;DHT22;1953;51.222;6.624;2024-03-08T08:30:16;6.60;1.00
3876;DHT22;1953;51.222;6.624;2024-03-08T08:34:58;6.80;1.00
3876;DHT22;1953;51.222;6.624;2024-03-08T08:39:42;7.00;1.00
3876;DHT22;1953;51.222;6.624;2024-03-08T08:44:24;7.20;1.00
3876;DHT22;1953;51.222;6.624;2024-03-08T08:49:08;7.30;1.00
3876;DHT22;1953;51.222;6.624;2024-03-08T08:53:55;7.10;1.00
3876;DHT22;1953;51.222;6.624;2024-03-08T08:58:39;7.60;1.00
3876;DHT22;1953;51.222;6.624;2024-03-08T09:03:22;7.70;1.00
3876;DHT22;1953;51.222;6.624;2024-03-08T09:08:06;7.90;1.00
3876;DHT22;1953;51.222;6.624;2024-03-08T09:12:49;8.00;1.00
3876;DHT22;1953;51.222;6.624;2024-03-08T09:17:33;8.10;1.00
3876;DHT22;1953;51.222;6.624;2024-03-08T09:22:15;8.30;1.00
3876;DHT22;1953;51.222;6.624;2024-03-08T09:26:59;8.40;1.00
3876;DHT22;1953;51.222;6.624;2024-03-08T09:31:41;8.60;1.00
3876;DHT22;1953;51.222;6.624;2024-03-08T09:36:25;8.80;1.00
3876;DHT22;1953;51.222;6.624;2024-03-08T09:41:08;8.90;1.00
3876;DHT22;1953;51.222;6.624;2024-03-08T09:45:51;9.00;1.00
3876;DHT22;1953;51.222;6.624;2024-03-08T09:50:34;9.20;1.00
3876;DHT22;1953;51.222;6.624;2024-03-08T09:55:18;9.30;1.00
3876;DHT22;1953;51.222;6.624;2024-03-08T10:00:04;9.40;1.00
3876;DHT22;1953;51.222;6.624;2024-03-08T10:04:59;9.50;1.00
3876;DHT22;1953;51.222;6.624;2024-03-08T10:09:44;9.60;1.00
3876;DHT22;1953;51.222;6.624;2024-03-08T10:14:32;9.60;1.00
3876;DHT22;1953;51.222;6.624;2024-03-08T10:19:15;9.80;1.00
3876;DHT22;1953;51.222;6.624;2024-03-08T10:23:58;9.90;1.00
3876;DHT22;1953;51.222;6.624;2024-03-08T10:28:41;9.90;1.00
3876;DHT22;1953;51.222;6.624;2024-03-08T10:33:25;10.00;1.00
3876;DHT22;1953;51.222;6.624;2024-03-08T10:38:10;10.40;1.00
3876;DHT22;1953;51.222;6.624;2024-03-08T10:42:56;10.30;1.00
3876;DHT22;1953;51.222;6.624;2024-03-08T10:47:41;10.40;1.00
3876;DHT22;1953;51.222;6.624;2024-03-08T10:52:25;10.50;1.00
3876;DHT22;1953;51.222;6.624;2024-03-08T10:57:08;10.60;1.00
3876;DHT22;1953;51.222;6.624;2024-03-08T11:01:51;10.80;1.00
3876;DHT22;1953;51.222;6.624;2024-03-08T11:06:42;10.90;1.00
3876;DHT22;1953;51.222;6.624;2024-03-08T11:11:29;11.00;1.00
3876;DHT22;1953;51.222;6.624;2024-03-08T11:16:38;11.10;1.00
3876;DHT22;1953;51.222;6.624;2024-03-08T11:21:24;11.50;1.00
3876;DHT22;1953;51.222;6.624;2024-03-08T11:26:18;11.50;1.00
3876;DHT22;1953;51.222;6.624;2024-03-08T11:31:23;11.60;1.00
3876;DHT22;1953;51.222;6.624;2024-03-08T11:36:08;11.60;1.00
3876;DHT22;1953;51.222;6.624;2024-03-08T11:40:52;11.70;1.00
3876;DHT22;1953;51.222;6.624;2024-03-08T11:45:35;11.80;1.00
3876;DHT22;1953;51.222;6.624;2024-03-08T11:50:19;11.90;1.00
3876;DHT22;1953;51.222;6.624;2024-03-08T11:55:05;12.00;1.00
3876;DHT22;1953;51.222;6.624;2024-03-08T11:59:50;12.10;1.00
3876;DHT22;1953;51.222;6.624;2024-03-08T12:04:33;12.30;1.00
3876;DHT22;1953;51.222;6.624;2024-03-08T12:09:18;12.40;1.00
3876;DHT22;1953;51.222;6.624;2024-03-08T12:14:03;12.60;1.00
3876;DHT22;1953;51.222;6.624;2024-03-08T12:22:45;12.80;1.00
3876;DHT22;1953;51.222;6.624;2024-03-08T12:27:28;12.80;1.00
3876;DHT22;1953;51.222;6.624;2024-03-08T12:32:10;12.90;1.00
3876;DHT22;1953;51.222;6.624;2024-03-08T12:36:53;13.20;1.00
3876;DHT22;1953;51.222;6.624;2024-03-08T12:41:39;13.50;1.00
3876;DHT22;1953;51.222;6.624;2024-03-08T12:46:22;13.80;1.00
3876;DHT22;1953;51.222;6.624;2024-03-08T12:51:07;14.30;1.00
3876;DHT22;1953;51.222;6.624;2024-03-08T12:55:50;14.70;1.00
3876;DHT22;1953;51.222;6.624;2024-03-08T13:00:35;15.20;1.00
3876;DHT22;1953;51.222;6.624;2024-03-08T13:05:18;15.90;1.00
3876;DHT22;1953;51.222;6.624;2024-03-08T13:10:01;16.40;1.00
3876;DHT22;1953;51.222;6.624;2024-03-08T13:14:43;16.90;1.00
3876;DHT22;1953;51.222;6.624;2024-03-08T13:19:27;17.30;1.00
3876;DHT22;1953;51.222;6.624;2024-03-08T13:24:10;17.80;1.00
3876;DHT22;1953;51.222;6.624;2024-03-08T13:28:52;18.00;1.00
3876;DHT22;1953;51.222;6.624;2024-03-08T13:33:35;17.90;1.00
3876;DHT22;1953;51.222;6.624;2024-03-08T13:38:21;17.80;1.00
3876;DHT22;1953;51.222;6.624;2024-03-08T13:43:04;18.00;1.00
3876;DHT22;1953;51.222;6.624;2024-03-08T13:47:47;18.20;1.00
3876;DHT22;1953;51.222;6.624;2024-03-08T13:52:30;18.30;1.00
3876;DHT22;1953;51.222;6.624;2024-03-08T13:57:14;18.10;1.00
3876;DHT22;1953;51.222;6.624;2024-03-08T14:01:57;18.20;1.00
3876;DHT22;1953;51.222;6.624;2024-03-08T14:06:40;18.30;1.00
3876;DHT22;1953;51.222;6.624;2024-03-08T14:11:24;18.10;1.00
3876;DHT22;1953;51.222;6.624;2024-03-08T14:16:08;17.90;1.00
3876;DHT22;1953;51.222;6.624;2024-03-08T14:20:51;17.80;1.00
3876;DHT22;1953;51.222;6.624;2024-03-08T14:25:34;18.00;1.00
3876;DHT22;1953;51.222;6.624;2024-03-08T14:30:16;18.10;1.00
3876;DHT22;1953;51.222;6.624;2024-03-08T14:35:14;18.00;1.00
3876;DHT22;1953;51.222;6.624;2024-03-08T14:39:57;18.10;1.00
3876;DHT22;1953;51.222;6.624;2024-03-08T14:44:39;18.50;1.00
3876;DHT22;1953;51.222;6.624;2024-03-08T14:49:22;18.50;1.00
3876;DHT22;1953;51.222;6.624;2024-03-08T14:54:06;18.50;1.00
3876;DHT22;1953;51.222;6.624;2024-03-08T14:58:51;18.30;1.00
3876;DHT22;1953;51.222;6.624;2024-03-08T15:03:35;18.30;1.00
3876;DHT22;1953;51.222;6.624;2024-03-08T15:08:19;18.00;1.00
3876;DHT22;1953;51.222;6.624;2024-03-08T15:13:05;17.90;1.00
3876;DHT22;1953;51.222;6.624;2024-03-08T15:17:55;17.80;1.00
3876;DHT22;1953;51.222;6.624;2024-03-08T15:22:39;17.80;1.00
3876;DHT22;1953;51.222;6.624;2024-03-08T15:27:22;17.60;1.00
3876;DHT22;1953;51.222;6.624;2024-03-08T15:32:06;17.70;1.00
3876;DHT22;1953;51.222;6.624;2024-03-08T15:36:51;18.10;1.00
3876;DHT22;1953;51.222;6.624;2024-03-08T15:41:34;18.30;1.00
3876;DHT22;1953;51.222;6.624;2024-03-08T15:46:16;18.40;1.00
3876;DHT22;1953;51.222;6.624;2024-03-08T15:51:05;18.40;1.00
3876;DHT22;1953;51.222;6.624;2024-03-08T15:55:48;18.10;1.00
3876;DHT22;1953;51.222;6.624;2024-03-08T16:00:30;17.70;1.00
3876;DHT22;1953;51.222;6.624;2024-03-08T16:05:17;17.90;1.00
3876;DHT22;1953;51.222;6.624;2024-03-08T16:10:02;17.70;1.00
3876;DHT22;1953;51.222;6.624;2024-03-08T16:14:47;17.60;1.00
3876;DHT22;1953;51.222;6.624;2024-03-08T16:19:30;17.30;1.00
3876;DHT22;1953;51.222;6.624;2024-03-08T16:24:13;17.20;1.00
3876;DHT22;1953;51.222;6.624;2024-03-08T16:28:57;17.30;1.00
3876;DHT22;1953;51.222;6.624;2024-03-08T16:33:39;17.20;1.00
3876;DHT22;1953;51.222;6.624;2024-03-08T16:38:22;16.90;1.00
3876;DHT22;1953;51.222;6.624;2024-03-08T16:43:05;16.30;1.00
3876;DHT22;1953;51.222;6.624;2024-03-08T16:47:53;15.90;1.00
3876;DHT22;1953;51.222;6.624;2024-03-08T16:52:36;15.60;1.00
3876;DHT22;1953;51.222;6.624;2024-03-08T16:57:18;15.40;1.00
3876;DHT22;1953;51.222;6.624;2024-03-08T17:02:01;15.10;1.00
3876;DHT22;1953;51.222;6.624;2024-03-08T17:06:48;14.90;1.00
3876;DHT22;1953;51.222;6.624;2024-03-08T17:11:31;14.60;1.00
3876;DHT22;1953;51.222;6.624;2024-03-08T17:16:14;14.40;1.00
3876;DHT22;1953;51.222;6.624;2024-03-08T17:20:56;14.30;1.00
3876;DHT22;1953;51.222;6.624;2024-03-08T17:25:40;14.00;1.00
3876;DHT22;1953;51.222;6.624;2024-03-08T17:30:25;13.90;1.00
3876;DHT22;1953;51.222;6.624;2024-03-08T17:35:08;13.70;1.00
3876;DHT22;1953;51.222;6.624;2024-03-08T17:39:53;13.60;1.00
3876;DHT22;1953;51.222;6.624;2024-03-08T17:44:37;13.50;1.00
3876;DHT22;1953;51.222;6.624;2024-03-08T17:49:20;13.20;1.00
3876;DHT22;1953;51.222;6.624;2024-03-08T17:54:04;13.00;1.00
3876;DHT22;1953;51.222;6.624;2024-03-08T17:58:48;12.90;1.00
3876;DHT22;1953;51.222;6.624;2024-03-08T18:03:33;12.80;1.00
3876;DHT22;1953;51.222;6.624;2024-03-08T18:08:17;12.70;1.00
3876;DHT22;1953;51.222;6.624;2024-03-08T18:13:01;12.70;1.00
3876;DHT22;1953;51.222;6.624;2024-03-08T18:17:50;12.50;1.00
3876;DHT22;1953;51.222;6.624;2024-03-08T18:22:34;12.40;1.00
3876;DHT22;1953;51.222;6.624;2024-03-08T18:27:17;12.30;1.00
3876;DHT22;1953;51.222;6.624;2024-03-08T18:32:00;12.20;1.00
3876;DHT22;1953;51.222;6.624;2024-03-08T18:36:43;12.10;1.00
3876;DHT22;1953;51.222;6.624;2024-03-08T18:41:27;12.10;1.00
3876;DHT22;1953;51.222;6.624;2024-03-08T18:46:14;11.90;1.00
3876;DHT22;1953;51.222;6.624;2024-03-08T18:50:57;11.80;1.00
3876;DHT22;1953;51.222;6.624;2024-03-08T18:55:40;11.70;1.00
3876;DHT22;1953;51.222;6.624;2024-03-08T19:00:25;11.60;1.00
3876;DHT22;1953;51.222;6.624;2024-03-08T19:05:10;11.50;1.00
3876;DHT22;1953;51.222;6.624;2024-03-08T19:09:57;11.40;1.00
3876;DHT22;1953;51.222;6.624;2024-03-08T19:14:39;11.30;1.00
3876;DHT22;1953;51.222;6.624;2024-03-08T19:19:23;11.20;1.00
3876;DHT22;1953;51.222;6.624;2024-03-08T19:24:06;11.10;1.00
3876;DHT22;1953;51.222;6.624;2024-03-08T19:28:49;11.00;1.00
3876;DHT22;1953;51.222;6.624;2024-03-08T19:33:31;11.00;1.00
3876;DHT22;1953;51.222;6.624;2024-03-08T19:38:15;10.80;1.00
3876;DHT22;1953;51.222;6.624;2024-03-08T19:42:58;10.80;1.00
3876;DHT22;1953;51.222;6.624;2024-03-08T19:47:41;10.70;1.00
3876;DHT22;1953;51.222;6.624;2024-03-08T19:52:24;10.30;1.00
3876;DHT22;1953;51.222;6.624;2024-03-08T19:57:08;10.50;1.00
3876;DHT22;1953;51.222;6.624;2024-03-08T20:01:51;10.40;1.00
3876;DHT22;1953;51.222;6.624;2024-03-08T20:06:34;10.30;1.00
3876;DHT22;1953;51.222;6.624;2024-03-08T20:11:21;10.20;1.00
3876;DHT22;1953;51.222;6.624;2024-03-08T20:16:05;10.10;1.00
3876;DHT22;1953;51.222;6.624;2024-03-08T20:20:50;10.10;1.00
3876;DHT22;1953;51.222;6.624;2024-03-08T20:25:35;9.90;1.00
3876;DHT22;1953;51.222;6.624;2024-03-08T20:30:20;9.80;1.00
3876;DHT22;1953;51.222;6.624;2024-03-08T20:35:05;9.70;1.00
3876;DHT22;1953;51.222;6.624;2024-03-08T20:39:48;9.70;1.00
3876;DHT22;1953;51.222;6.624;2024-03-08T20:44:33;9.60;1.00
3876;DHT22;1953;51.222;6.624;2024-03-08T20:49:15;9.60;1.00
3876;DHT22;1953;51.222;6.624;2024-03-08T20:54:02;9.50;1.00
3876;DHT22;1953;51.222;6.624;2024-03-08T20:58:46;9.40;1.00
3876;DHT22;1953;51.222;6.624;2024-03-08T21:03:29;9.30;1.00
3876;DHT22;1953;51.222;6.624;2024-03-08T21:08:12;9.30;1.00
3876;DHT22;1953;51.222;6.624;2024-03-08T21:13:00;9.20;1.00
3876;DHT22;1953;51.222;6.624;2024-03-08T21:17:43;9.20;1.00
3876;DHT22;1953;51.222;6.624;2024-03-08T21:22:25;9.20;1.00
3876;DHT22;1953;51.222;6.624;2024-03-08T21:27:08;9.00;1.00
3876;DHT22;1953;51.222;6.624;2024-03-08T21:31:52;9.00;1.00
3876;DHT22;1953;51.222;6.624;2024-03-08T21:36:35;9.00;1.00
3876;DHT22;1953;51.222;6.624;2024-03-08T21:41:18;8.90;1.00
3876;DHT22;1953;51.222;6.624;2024-03-08T21:46:01;8.80;1.00
3876;DHT22;1953;51.222;6.624;2024-03-08T21:50:45;8.80;1.00
3876;DHT22;1953;51.222;6.624;2024-03-08T21:55:27;8.70;1.00
3876;DHT22;1953;51.222;6.624;2024-03-08T22:00:12;8.60;1.00
3876;DHT22;1953;51.222;6.624;2024-03-08T22:04:58;8.50;1.00
3876;DHT22;1953;51.222;6.624;2024-03-08T22:09:42;8.50;1.00
3876;DHT22;1953;51.222;6.624;2024-03-08T22:14:25;8.40;1.00
3876;DHT22;1953;51.222;6.624;2024-03-08T22:19:08;8.20;1.00
3876;DHT22;1953;51.222;6.624;2024-03-08T22:23:51;8.20;1.00
3876;DHT22;1953;51.222;6.624;2024-03-08T22:28:36;8.20;1.00
3876;DHT22;1953;51.222;6.624;2024-03-08T22:33:19;8.20;1.00
3876;DHT22;1953;51.222;6.624;2024-03-08T22:38:04;8.20;1.00
3876;DHT22;1953;51.222;6.624;2024-03-08T22:42:48;8.10;1.00
3876;DHT22;1953;51.222;6.624;2024-03-08T22:47:32;8.20;1.00
3876;DHT22;1953;51.222;6.624;2024-03-08T22:52:15;8.20;1.00
3876;DHT22;1953;51.222;6.624;2024-03-08T22:56:57;8.20;1.00
3876;DHT22;1953;51.222;6.624;2024-03-08T23:01:46;8.20;1.00
3876;DHT22;1953;51.222;6.624;2024-03-08T23:06:30;8.20;1.00
3876;DHT22;1953;51.222;6.624;2024-03-08T23:11:12;8.20;1.00
3876;DHT22;1953;51.222;6.624;2024-03-08T23:15:55;8.20;1.00
3876;DHT22;1953;51.222;6.624;2024-03-08T23:20:38;8.20;1.00
3876;DHT22;1953;51.222;6.624;2024-03-08T23:25:25;8.20;1.00
3876;DHT22;1953;51.222;6.624;2024-03-08T23:30:09;8.30;1.00
3876;DHT22;1953;51.222;6.624;2024-03-08T23:34:52;8.30;1.00
3876;DHT22;1953;51.222;6.624;2024-03-08T23:39:35;8.20;1.00
3876;DHT22;1953;51.222;6.624;2024-03-08T23:44:18;7.60;1.00
3876;DHT22;1953;51.222;6.624;2024-03-08T23:49:01;8.30;1.00
3876;DHT22;1953;51.222;6.624;2024-03-08T23:53:43;8.30;1.00
3876;DHT22;1953;51.222;6.624;2024-03-08T23:58:26;8.30;1.00
